Terminal Aerodrome Forecast
Issued by NWS

Home | Current Version | Previous Version | Text Only | Print | Product List | Glossary On
Versions: 1 2 3 4 5 6 7 8 9 10 11 12 13 14 15 16 17 18 19 20
000
FTUS46 KSEW 010500
TAFCLM
TAF
KCLM 010540Z 0106/0206 25006KT P6SM FEW035
     FM011200 23004KT P6SM SCT022 SCT200
      TEMPO 0112/0116 BKN022 BKN200
     FM011800 31010KT P6SM FEW030 BKN200
     FM020000 28007KT P6SM BKN200=

USA.gov is the U.S. government's official web portal to all federal, state and local government web resources and services.